sensor_id;sensor_type;location;lat;lon;timestamp;P1;durP1;ratioP1;P2;durP2;ratioP2
13481;SDS011;6813;60.352;15.746;2022-12-11T00:00:10;2.90;;;1.40;;
13481;SDS011;6813;60.352;15.746;2022-12-11T00:02:36;4.50;;;1.40;;
13481;SDS011;6813;60.352;15.746;2022-12-11T00:05:02;3.13;;;1.30;;
13481;SDS011;6813;60.352;15.746;2022-12-11T00:07:28;1.77;;;1.30;;
13481;SDS011;6813;60.352;15.746;2022-12-11T00:09:54;1.20;;;1.07;;
13481;SDS011;6813;60.352;15.746;2022-12-11T00:12:19;2.43;;;1.47;;
13481;SDS011;6813;60.352;15.746;2022-12-11T00:14:45;2.20;;;1.43;;
13481;SDS011;6813;60.352;15.746;2022-12-11T00:17:11;3.10;;;1.77;;
13481;SDS011;6813;60.352;15.746;2022-12-11T00:19:36;2.10;;;1.57;;
13481;SDS011;6813;60.352;15.746;2022-12-11T00:22:02;1.80;;;1.20;;
13481;SDS011;6813;60.352;15.746;2022-12-11T00:24:28;2.27;;;1.33;;
13481;SDS011;6813;60.352;15.746;2022-12-11T00:26:54;1.57;;;1.17;;
13481;SDS011;6813;60.352;15.746;2022-12-11T00:29:19;2.97;;;1.50;;
13481;SDS011;6813;60.352;15.746;2022-12-11T00:31:45;2.40;;;1.43;;
13481;SDS011;6813;60.352;15.746;2022-12-11T00:34:11;1.30;;;1.20;;
13481;SDS011;6813;60.352;15.746;2022-12-11T00:36:37;2.00;;;1.60;;
13481;SDS011;6813;60.352;15.746;2022-12-11T00:39:03;4.70;;;1.97;;
13481;SDS011;6813;60.352;15.746;2022-12-11T00:41:29;3.27;;;1.70;;
13481;SDS011;6813;60.352;15.746;2022-12-11T00:43:56;2.20;;;1.40;;
13481;SDS011;6813;60.352;15.746;2022-12-11T00:46:21;1.97;;;1.40;;
13481;SDS011;6813;60.352;15.746;2022-12-11T00:48:47;2.30;;;1.40;;
13481;SDS011;6813;60.352;15.746;2022-12-11T00:51:14;2.53;;;1.30;;
13481;SDS011;6813;60.352;15.746;2022-12-11T00:53:40;2.57;;;1.40;;
13481;SDS011;6813;60.352;15.746;2022-12-11T00:56:13;1.40;;;1.30;;
13481;SDS011;6813;60.352;15.746;2022-12-11T00:58:40;2.50;;;1.63;;
13481;SDS011;6813;60.352;15.746;2022-12-11T01:01:08;1.97;;;1.47;;
13481;SDS011;6813;60.352;15.746;2022-12-11T01:03:36;1.40;;;1.20;;
13481;SDS011;6813;60.352;15.746;2022-12-11T01:06:03;1.67;;;1.37;;
13481;SDS011;6813;60.352;15.746;2022-12-11T01:08:30;1.97;;;1.67;;
13481;SDS011;6813;60.352;15.746;2022-12-11T01:11:06;2.20;;;1.27;;
13481;SDS011;6813;60.352;15.746;2022-12-11T01:13:34;1.67;;;1.40;;
13481;SDS011;6813;60.352;15.746;2022-12-11T01:16:04;2.60;;;1.20;;
13481;SDS011;6813;60.352;15.746;2022-12-11T01:18:31;1.70;;;1.20;;
13481;SDS011;6813;60.352;15.746;2022-12-11T01:20:57;2.93;;;1.80;;
13481;SDS011;6813;60.352;15.746;2022-12-11T01:23:23;1.77;;;1.27;;
13481;SDS011;6813;60.352;15.746;2022-12-11T01:25:48;2.00;;;1.47;;
13481;SDS011;6813;60.352;15.746;2022-12-11T01:28:14;3.60;;;1.63;;
13481;SDS011;6813;60.352;15.746;2022-12-11T01:30:41;1.50;;;1.40;;
13481;SDS011;6813;60.352;15.746;2022-12-11T01:33:07;1.93;;;1.50;;
13481;SDS011;6813;60.352;15.746;2022-12-11T01:35:34;1.60;;;1.37;;
13481;SDS011;6813;60.352;15.746;2022-12-11T01:38:00;1.43;;;1.33;;
13481;SDS011;6813;60.352;15.746;2022-12-11T01:40:26;1.63;;;1.30;;
13481;SDS011;6813;60.352;15.746;2022-12-11T01:42:53;2.00;;;1.60;;
13481;SDS011;6813;60.352;15.746;2022-12-11T01:45:27;1.67;;;1.20;;
13481;SDS011;6813;60.352;15.746;2022-12-11T01:48:04;3.90;;;1.50;;
13481;SDS011;6813;60.352;15.746;2022-12-11T01:50:35;3.37;;;1.53;;
13481;SDS011;6813;60.352;15.746;2022-12-11T01:53:09;1.93;;;1.47;;
13481;SDS011;6813;60.352;15.746;2022-12-11T01:55:37;1.80;;;1.40;;
13481;SDS011;6813;60.352;15.746;2022-12-11T01:58:05;2.37;;;1.60;;
13481;SDS011;6813;60.352;15.746;2022-12-11T02:00:32;1.47;;;1.20;;
13481;SDS011;6813;60.352;15.746;2022-12-11T02:02:58;2.97;;;1.70;;
13481;SDS011;6813;60.352;15.746;2022-12-11T02:05:24;1.43;;;0.97;;
13481;SDS011;6813;60.352;15.746;2022-12-11T02:07:50;3.53;;;1.43;;
13481;SDS011;6813;60.352;15.746;2022-12-11T02:10:20;2.50;;;1.60;;
13481;SDS011;6813;60.352;15.746;2022-12-11T02:12:52;2.77;;;1.30;;
13481;SDS011;6813;60.352;15.746;2022-12-11T02:18:34;2.60;;;1.20;;
13481;SDS011;6813;60.352;15.746;2022-12-11T02:21:17;2.20;;;1.40;;
13481;SDS011;6813;60.352;15.746;2022-12-11T02:26:45;1.70;;;1.23;;
13481;SDS011;6813;60.352;15.746;2022-12-11T02:29:37;2.13;;;1.47;;
13481;SDS011;6813;60.352;15.746;2022-12-11T02:32:09;1.80;;;1.30;;
13481;SDS011;6813;60.352;15.746;2022-12-11T02:34:45;1.50;;;1.40;;
13481;SDS011;6813;60.352;15.746;2022-12-11T02:37:31;1.53;;;1.30;;
13481;SDS011;6813;60.352;15.746;2022-12-11T02:40:00;1.90;;;1.23;;
13481;SDS011;6813;60.352;15.746;2022-12-11T02:42:29;3.07;;;1.23;;
13481;SDS011;6813;60.352;15.746;2022-12-11T02:44:56;2.03;;;1.33;;
13481;SDS011;6813;60.352;15.746;2022-12-11T02:47:25;1.20;;;1.00;;
13481;SDS011;6813;60.352;15.746;2022-12-11T02:49:53;2.10;;;1.60;;
13481;SDS011;6813;60.352;15.746;2022-12-11T02:52:22;1.30;;;1.20;;
13481;SDS011;6813;60.352;15.746;2022-12-11T02:54:50;1.43;;;1.33;;
13481;SDS011;6813;60.352;15.746;2022-12-11T02:57:24;1.23;;;1.10;;
13481;SDS011;6813;60.352;15.746;2022-12-11T02:59:52;1.87;;;1.30;;
13481;SDS011;6813;60.352;15.746;2022-12-11T03:02:18;2.97;;;1.60;;
13481;SDS011;6813;60.352;15.746;2022-12-11T03:04:44;1.73;;;1.27;;
13481;SDS011;6813;60.352;15.746;2022-12-11T03:07:16;2.40;;;1.60;;
13481;SDS011;6813;60.352;15.746;2022-12-11T03:09:47;1.80;;;1.60;;
13481;SDS011;6813;60.352;15.746;2022-12-11T03:12:16;1.80;;;1.37;;
13481;SDS011;6813;60.352;15.746;2022-12-11T03:14:45;1.80;;;1.50;;
13481;SDS011;6813;60.352;15.746;2022-12-11T03:17:20;1.53;;;1.33;;
13481;SDS011;6813;60.352;15.746;2022-12-11T03:25:13;2.23;;;1.33;;
13481;SDS011;6813;60.352;15.746;2022-12-11T03:27:46;2.63;;;1.50;;
13481;SDS011;6813;60.352;15.746;2022-12-11T03:30:20;1.80;;;1.70;;
13481;SDS011;6813;60.352;15.746;2022-12-11T03:35:24;11.70;;;8.77;;
13481;SDS011;6813;60.352;15.746;2022-12-11T03:37:53;10.47;;;7.53;;
13481;SDS011;6813;60.352;15.746;2022-12-11T03:40:24;9.17;;;7.07;;
13481;SDS011;6813;60.352;15.746;2022-12-11T03:42:51;8.10;;;6.27;;
13481;SDS011;6813;60.352;15.746;2022-12-11T03:45:19;4.97;;;3.37;;
13481;SDS011;6813;60.352;15.746;2022-12-11T03:47:48;9.83;;;6.53;;
13481;SDS011;6813;60.352;15.746;2022-12-11T03:50:16;5.53;;;4.27;;
13481;SDS011;6813;60.352;15.746;2022-12-11T03:52:44;3.73;;;2.13;;
13481;SDS011;6813;60.352;15.746;2022-12-11T03:55:12;2.30;;;1.37;;
13481;SDS011;6813;60.352;15.746;2022-12-11T03:57:39;3.70;;;1.40;;
13481;SDS011;6813;60.352;15.746;2022-12-11T04:00:08;2.03;;;1.20;;
13481;SDS011;6813;60.352;15.746;2022-12-11T04:02:36;1.40;;;1.27;;
13481;SDS011;6813;60.352;15.746;2022-12-11T04:05:02;3.23;;;1.60;;
13481;SDS011;6813;60.352;15.746;2022-12-11T04:07:28;1.77;;;1.27;;
13481;SDS011;6813;60.352;15.746;2022-12-11T04:09:55;1.80;;;1.50;;
13481;SDS011;6813;60.352;15.746;2022-12-11T04:12:21;2.30;;;1.30;;
13481;SDS011;6813;60.352;15.746;2022-12-11T04:14:46;2.67;;;1.33;;
13481;SDS011;6813;60.352;15.746;2022-12-11T04:17:36;1.43;;;1.20;;
13481;SDS011;6813;60.352;15.746;2022-12-11T04:20:20;1.83;;;1.57;;
13481;SDS011;6813;60.352;15.746;2022-12-11T04:23:05;1.20;;;1.10;;
13481;SDS011;6813;60.352;15.746;2022-12-11T04:25:53;4.63;;;2.73;;
13481;SDS011;6813;60.352;15.746;2022-12-11T04:28:27;3.10;;;1.37;;
13481;SDS011;6813;60.352;15.746;2022-12-11T04:30:52;2.57;;;1.80;;
13481;SDS011;6813;60.352;15.746;2022-12-11T04:33:18;2.53;;;1.57;;
13481;SDS011;6813;60.352;15.746;2022-12-11T04:35:44;1.70;;;1.30;;
13481;SDS011;6813;60.352;15.746;2022-12-11T04:38:09;2.63;;;1.20;;
13481;SDS011;6813;60.352;15.746;2022-12-11T04:40:35;3.87;;;1.40;;
13481;SDS011;6813;60.352;15.746;2022-12-11T04:43:01;2.07;;;1.60;;
13481;SDS011;6813;60.352;15.746;2022-12-11T04:45:27;2.33;;;1.40;;
13481;SDS011;6813;60.352;15.746;2022-12-11T04:47:52;3.17;;;1.60;;
13481;SDS011;6813;60.352;15.746;2022-12-11T04:50:18;2.53;;;1.60;;
13481;SDS011;6813;60.352;15.746;2022-12-11T04:52:44;2.40;;;1.50;;
13481;SDS011;6813;60.352;15.746;2022-12-11T04:55:10;2.20;;;1.60;;
13481;SDS011;6813;60.352;15.746;2022-12-11T04:57:36;2.23;;;1.70;;
13481;SDS011;6813;60.352;15.746;2022-12-11T05:00:07;2.17;;;1.70;;
13481;SDS011;6813;60.352;15.746;2022-12-11T05:02:34;1.50;;;1.20;;
13481;SDS011;6813;60.352;15.746;2022-12-11T05:05:02;3.73;;;1.50;;
13481;SDS011;6813;60.352;15.746;2022-12-11T05:07:29;2.40;;;1.13;;
13481;SDS011;6813;60.352;15.746;2022-12-11T05:09:54;1.17;;;0.83;;
13481;SDS011;6813;60.352;15.746;2022-12-11T05:12:20;1.40;;;1.10;;
13481;SDS011;6813;60.352;15.746;2022-12-11T05:14:46;2.87;;;1.50;;
13481;SDS011;6813;60.352;15.746;2022-12-11T05:17:11;2.73;;;1.63;;
13481;SDS011;6813;60.352;15.746;2022-12-11T05:19:37;3.10;;;1.30;;
13481;SDS011;6813;60.352;15.746;2022-12-11T05:22:03;1.80;;;1.33;;
13481;SDS011;6813;60.352;15.746;2022-12-11T05:24:29;1.93;;;1.13;;
13481;SDS011;6813;60.352;15.746;2022-12-11T05:26:54;1.47;;;1.33;;
13481;SDS011;6813;60.352;15.746;2022-12-11T05:29:20;3.70;;;1.60;;
13481;SDS011;6813;60.352;15.746;2022-12-11T05:31:46;2.57;;;1.50;;
13481;SDS011;6813;60.352;15.746;2022-12-11T05:34:11;1.20;;;1.10;;
13481;SDS011;6813;60.352;15.746;2022-12-11T05:36:39;2.17;;;1.40;;
13481;SDS011;6813;60.352;15.746;2022-12-11T05:39:04;2.60;;;1.53;;
13481;SDS011;6813;60.352;15.746;2022-12-11T05:41:31;2.23;;;1.13;;
13481;SDS011;6813;60.352;15.746;2022-12-11T05:43:57;2.10;;;1.40;;
13481;SDS011;6813;60.352;15.746;2022-12-11T05:46:24;4.20;;;1.20;;
13481;SDS011;6813;60.352;15.746;2022-12-11T05:48:52;2.57;;;1.40;;
13481;SDS011;6813;60.352;15.746;2022-12-11T05:51:20;2.80;;;1.53;;
13481;SDS011;6813;60.352;15.746;2022-12-11T05:53:48;6.30;;;1.87;;
13481;SDS011;6813;60.352;15.746;2022-12-11T05:56:15;1.40;;;1.30;;
13481;SDS011;6813;60.352;15.746;2022-12-11T05:58:50;4.73;;;1.60;;
13481;SDS011;6813;60.352;15.746;2022-12-11T06:01:17;1.80;;;1.40;;
13481;SDS011;6813;60.352;15.746;2022-12-11T06:03:45;2.40;;;1.43;;
13481;SDS011;6813;60.352;15.746;2022-12-11T06:06:11;1.97;;;1.40;;
13481;SDS011;6813;60.352;15.746;2022-12-11T06:08:37;1.63;;;1.40;;
13481;SDS011;6813;60.352;15.746;2022-12-11T06:11:03;2.23;;;1.27;;
13481;SDS011;6813;60.352;15.746;2022-12-11T06:13:29;1.40;;;1.10;;
13481;SDS011;6813;60.352;15.746;2022-12-11T06:15:59;2.67;;;1.23;;
13481;SDS011;6813;60.352;15.746;2022-12-11T06:18:30;2.27;;;1.43;;
13481;SDS011;6813;60.352;15.746;2022-12-11T06:20:55;6.67;;;1.63;;
13481;SDS011;6813;60.352;15.746;2022-12-11T06:23:21;1.47;;;1.33;;
13481;SDS011;6813;60.352;15.746;2022-12-11T06:25:47;1.93;;;1.33;;
13481;SDS011;6813;60.352;15.746;2022-12-11T06:28:13;2.80;;;1.50;;
13481;SDS011;6813;60.352;15.746;2022-12-11T06:30:38;3.20;;;1.20;;
13481;SDS011;6813;60.352;15.746;2022-12-11T06:33:04;2.30;;;1.23;;
13481;SDS011;6813;60.352;15.746;2022-12-11T06:35:30;1.67;;;1.20;;
13481;SDS011;6813;60.352;15.746;2022-12-11T06:37:56;1.80;;;1.37;;
13481;SDS011;6813;60.352;15.746;2022-12-11T06:40:22;2.17;;;1.30;;
13481;SDS011;6813;60.352;15.746;2022-12-11T06:42:48;2.50;;;1.47;;
13481;SDS011;6813;60.352;15.746;2022-12-11T06:45:14;3.33;;;1.40;;
13481;SDS011;6813;60.352;15.746;2022-12-11T06:47:40;2.00;;;1.27;;
13481;SDS011;6813;60.352;15.746;2022-12-11T06:50:06;1.83;;;1.30;;
13481;SDS011;6813;60.352;15.746;2022-12-11T06:52:31;2.60;;;1.57;;
13481;SDS011;6813;60.352;15.746;2022-12-11T06:54:57;2.40;;;1.60;;
13481;SDS011;6813;60.352;15.746;2022-12-11T06:57:23;1.57;;;1.00;;
13481;SDS011;6813;60.352;15.746;2022-12-11T06:59:48;2.50;;;1.67;;
13481;SDS011;6813;60.352;15.746;2022-12-11T07:02:15;2.77;;;1.43;;
13481;SDS011;6813;60.352;15.746;2022-12-11T07:04:42;3.30;;;1.73;;
13481;SDS011;6813;60.352;15.746;2022-12-11T07:07:08;3.67;;;1.60;;
13481;SDS011;6813;60.352;15.746;2022-12-11T07:09:35;2.40;;;1.57;;
13481;SDS011;6813;60.352;15.746;2022-12-11T07:12:02;1.43;;;1.33;;
13481;SDS011;6813;60.352;15.746;2022-12-11T07:14:29;2.57;;;1.60;;
13481;SDS011;6813;60.352;15.746;2022-12-11T07:16:55;3.30;;;1.67;;
13481;SDS011;6813;60.352;15.746;2022-12-11T07:19:21;4.13;;;1.83;;
13481;SDS011;6813;60.352;15.746;2022-12-11T07:21:47;3.07;;;2.13;;
13481;SDS011;6813;60.352;15.746;2022-12-11T07:24:13;3.10;;;1.93;;
13481;SDS011;6813;60.352;15.746;2022-12-11T07:26:39;3.07;;;1.80;;
13481;SDS011;6813;60.352;15.746;2022-12-11T07:29:05;7.23;;;3.97;;
13481;SDS011;6813;60.352;15.746;2022-12-11T07:31:30;10.60;;;4.43;;
13481;SDS011;6813;60.352;15.746;2022-12-11T07:33:57;7.67;;;3.87;;
13481;SDS011;6813;60.352;15.746;2022-12-11T07:36:24;8.93;;;3.90;;
13481;SDS011;6813;60.352;15.746;2022-12-11T07:38:50;5.27;;;3.50;;
13481;SDS011;6813;60.352;15.746;2022-12-11T07:41:16;6.60;;;3.53;;
13481;SDS011;6813;60.352;15.746;2022-12-11T07:43:42;7.93;;;4.10;;
13481;SDS011;6813;60.352;15.746;2022-12-11T07:46:10;9.87;;;4.37;;
13481;SDS011;6813;60.352;15.746;2022-12-11T07:48:38;8.00;;;4.43;;
13481;SDS011;6813;60.352;15.746;2022-12-11T07:53:41;11.30;;;6.83;;
13481;SDS011;6813;60.352;15.746;2022-12-11T07:56:08;12.50;;;6.57;;
13481;SDS011;6813;60.352;15.746;2022-12-11T07:58:34;9.20;;;5.50;;
13481;SDS011;6813;60.352;15.746;2022-12-11T08:01:00;10.27;;;5.73;;
13481;SDS011;6813;60.352;15.746;2022-12-11T08:03:26;9.30;;;5.77;;
13481;SDS011;6813;60.352;15.746;2022-12-11T08:05:52;11.77;;;6.50;;
13481;SDS011;6813;60.352;15.746;2022-12-11T08:08:18;13.33;;;7.23;;
13481;SDS011;6813;60.352;15.746;2022-12-11T08:10:44;9.43;;;5.97;;
13481;SDS011;6813;60.352;15.746;2022-12-11T08:13:10;15.27;;;8.23;;
13481;SDS011;6813;60.352;15.746;2022-12-11T08:15:36;15.37;;;8.37;;
13481;SDS011;6813;60.352;15.746;2022-12-11T08:18:02;11.37;;;6.90;;
13481;SDS011;6813;60.352;15.746;2022-12-11T08:20:29;11.37;;;6.77;;
13481;SDS011;6813;60.352;15.746;2022-12-11T08:22:55;20.00;;;6.50;;
13481;SDS011;6813;60.352;15.746;2022-12-11T08:25:21;11.73;;;7.67;;
13481;SDS011;6813;60.352;15.746;2022-12-11T08:27:47;14.13;;;7.63;;
13481;SDS011;6813;60.352;15.746;2022-12-11T08:30:13;11.40;;;6.80;;
13481;SDS011;6813;60.352;15.746;2022-12-11T08:32:39;10.30;;;6.03;;
13481;SDS011;6813;60.352;15.746;2022-12-11T08:35:05;13.50;;;7.47;;
13481;SDS011;6813;60.352;15.746;2022-12-11T08:37:32;15.00;;;8.13;;
13481;SDS011;6813;60.352;15.746;2022-12-11T08:39:58;13.83;;;7.67;;
13481;SDS011;6813;60.352;15.746;2022-12-11T08:42:24;10.90;;;6.27;;
13481;SDS011;6813;60.352;15.746;2022-12-11T08:44:49;8.27;;;5.47;;
13481;SDS011;6813;60.352;15.746;2022-12-11T08:47:15;8.07;;;5.50;;
13481;SDS011;6813;60.352;15.746;2022-12-11T08:49:41;8.33;;;5.13;;
13481;SDS011;6813;60.352;15.746;2022-12-11T08:52:07;8.47;;;4.97;;
13481;SDS011;6813;60.352;15.746;2022-12-11T08:54:35;7.97;;;4.60;;
13481;SDS011;6813;60.352;15.746;2022-12-11T08:57:01;6.20;;;4.17;;
13481;SDS011;6813;60.352;15.746;2022-12-11T08:59:26;8.07;;;4.40;;
13481;SDS011;6813;60.352;15.746;2022-12-11T09:01:54;6.37;;;4.50;;
13481;SDS011;6813;60.352;15.746;2022-12-11T09:04:20;6.60;;;4.00;;
13481;SDS011;6813;60.352;15.746;2022-12-11T09:06:46;6.03;;;3.70;;
13481;SDS011;6813;60.352;15.746;2022-12-11T09:09:12;3.90;;;2.40;;
13481;SDS011;6813;60.352;15.746;2022-12-11T09:11:39;2.97;;;1.90;;
13481;SDS011;6813;60.352;15.746;2022-12-11T09:14:05;4.47;;;2.10;;
13481;SDS011;6813;60.352;15.746;2022-12-11T09:16:31;4.40;;;2.07;;
13481;SDS011;6813;60.352;15.746;2022-12-11T09:18:58;3.23;;;2.10;;
13481;SDS011;6813;60.352;15.746;2022-12-11T09:21:25;3.50;;;2.13;;
13481;SDS011;6813;60.352;15.746;2022-12-11T09:23:53;3.33;;;2.03;;
13481;SDS011;6813;60.352;15.746;2022-12-11T09:26:20;3.80;;;2.27;;
13481;SDS011;6813;60.352;15.746;2022-12-11T09:28:46;4.97;;;2.30;;
13481;SDS011;6813;60.352;15.746;2022-12-11T09:31:16;5.50;;;2.50;;
13481;SDS011;6813;60.352;15.746;2022-12-11T09:33:48;5.07;;;2.43;;
13481;SDS011;6813;60.352;15.746;2022-12-11T09:36:15;4.80;;;2.73;;
13481;SDS011;6813;60.352;15.746;2022-12-11T09:38:41;4.83;;;2.77;;
13481;SDS011;6813;60.352;15.746;2022-12-11T09:43:48;4.37;;;2.90;;
13481;SDS011;6813;60.352;15.746;2022-12-11T09:46:19;5.20;;;2.43;;
13481;SDS011;6813;60.352;15.746;2022-12-11T09:48:46;5.33;;;2.70;;
13481;SDS011;6813;60.352;15.746;2022-12-11T09:51:34;5.20;;;2.60;;
13481;SDS011;6813;60.352;15.746;2022-12-11T09:54:04;4.63;;;2.40;;
13481;SDS011;6813;60.352;15.746;2022-12-11T09:59:47;6.20;;;3.07;;
13481;SDS011;6813;60.352;15.746;2022-12-11T10:16:10;3.80;;;2.67;;
13481;SDS011;6813;60.352;15.746;2022-12-11T10:18:54;3.40;;;2.10;;
13481;SDS011;6813;60.352;15.746;2022-12-11T10:21:20;6.50;;;2.97;;
13481;SDS011;6813;60.352;15.746;2022-12-11T10:23:57;6.33;;;2.80;;
13481;SDS011;6813;60.352;15.746;2022-12-11T10:26:26;4.80;;;3.50;;
13481;SDS011;6813;60.352;15.746;2022-12-11T10:28:53;5.83;;;3.00;;
13481;SDS011;6813;60.352;15.746;2022-12-11T10:31:29;6.33;;;3.20;;
13481;SDS011;6813;60.352;15.746;2022-12-11T10:36:26;5.87;;;2.90;;
13481;SDS011;6813;60.352;15.746;2022-12-11T10:38:53;5.93;;;3.53;;
13481;SDS011;6813;60.352;15.746;2022-12-11T10:41:20;4.87;;;2.93;;
13481;SDS011;6813;60.352;15.746;2022-12-11T10:43:50;5.87;;;3.50;;
13481;SDS011;6813;60.352;15.746;2022-12-11T10:46:21;5.07;;;3.30;;
13481;SDS011;6813;60.352;15.746;2022-12-11T10:48:50;6.60;;;3.93;;
13481;SDS011;6813;60.352;15.746;2022-12-11T10:53:57;6.47;;;3.40;;
13481;SDS011;6813;60.352;15.746;2022-12-11T10:56:40;5.27;;;3.10;;
13481;SDS011;6813;60.352;15.746;2022-12-11T11:02:55;4.80;;;3.47;;
13481;SDS011;6813;60.352;15.746;2022-12-11T11:08:01;4.60;;;3.00;;
13481;SDS011;6813;60.352;15.746;2022-12-11T11:13:19;5.50;;;2.77;;
13481;SDS011;6813;60.352;15.746;2022-12-11T11:15:46;6.17;;;3.33;;
13481;SDS011;6813;60.352;15.746;2022-12-11T11:18:15;4.13;;;3.10;;
13481;SDS011;6813;60.352;15.746;2022-12-11T11:20:50;5.53;;;3.10;;
13481;SDS011;6813;60.352;15.746;2022-12-11T11:23:18;8.80;;;4.67;;
13481;SDS011;6813;60.352;15.746;2022-12-11T11:28:26;5.33;;;2.83;;
13481;SDS011;6813;60.352;15.746;2022-12-11T11:33:25;4.37;;;2.80;;
13481;SDS011;6813;60.352;15.746;2022-12-11T11:35:56;4.50;;;2.87;;
13481;SDS011;6813;60.352;15.746;2022-12-11T11:38:48;4.90;;;2.87;;
13481;SDS011;6813;60.352;15.746;2022-12-11T11:41:24;6.03;;;3.27;;
13481;SDS011;6813;60.352;15.746;2022-12-11T11:44:09;5.70;;;3.10;;
13481;SDS011;6813;60.352;15.746;2022-12-11T11:46:52;5.10;;;3.33;;
13481;SDS011;6813;60.352;15.746;2022-12-11T11:51:53;5.77;;;3.20;;
13481;SDS011;6813;60.352;15.746;2022-12-11T11:56:57;4.67;;;2.73;;
13481;SDS011;6813;60.352;15.746;2022-12-11T11:59:29;6.10;;;3.40;;
13481;SDS011;6813;60.352;15.746;2022-12-11T12:02:00;3.67;;;2.90;;
13481;SDS011;6813;60.352;15.746;2022-12-11T12:04:30;4.67;;;2.80;;
13481;SDS011;6813;60.352;15.746;2022-12-11T12:07:14;5.07;;;2.87;;
13481;SDS011;6813;60.352;15.746;2022-12-11T12:13:04;6.43;;;3.03;;
13481;SDS011;6813;60.352;15.746;2022-12-11T12:15:41;5.13;;;3.10;;
13481;SDS011;6813;60.352;15.746;2022-12-11T12:21:04;3.50;;;2.40;;
13481;SDS011;6813;60.352;15.746;2022-12-11T12:26:50;3.40;;;2.67;;
13481;SDS011;6813;60.352;15.746;2022-12-11T12:29:41;5.47;;;3.37;;
13481;SDS011;6813;60.352;15.746;2022-12-11T12:35:34;6.10;;;3.30;;
13481;SDS011;6813;60.352;15.746;2022-12-11T12:41:03;3.87;;;2.80;;
13481;SDS011;6813;60.352;15.746;2022-12-11T12:49:36;4.10;;;2.40;;
13481;SDS011;6813;60.352;15.746;2022-12-11T12:51:59;3.47;;;2.60;;
13481;SDS011;6813;60.352;15.746;2022-12-11T12:54:26;5.57;;;3.30;;
13481;SDS011;6813;60.352;15.746;2022-12-11T12:56:54;4.43;;;2.77;;
13481;SDS011;6813;60.352;15.746;2022-12-11T12:59:22;4.37;;;3.10;;
13481;SDS011;6813;60.352;15.746;2022-12-11T13:01:50;4.13;;;2.60;;
13481;SDS011;6813;60.352;15.746;2022-12-11T13:04:44;6.30;;;3.53;;
13481;SDS011;6813;60.352;15.746;2022-12-11T13:07:27;8.70;;;6.03;;
13481;SDS011;6813;60.352;15.746;2022-12-11T13:12:42;7.67;;;5.97;;
13481;SDS011;6813;60.352;15.746;2022-12-11T13:15:28;10.60;;;5.20;;
13481;SDS011;6813;60.352;15.746;2022-12-11T13:17:55;6.77;;;4.40;;
13481;SDS011;6813;60.352;15.746;2022-12-11T13:20:24;6.33;;;4.50;;
13481;SDS011;6813;60.352;15.746;2022-12-11T13:25:56;5.70;;;4.33;;
13481;SDS011;6813;60.352;15.746;2022-12-11T13:28:28;5.50;;;3.33;;
13481;SDS011;6813;60.352;15.746;2022-12-11T13:33:47;5.63;;;3.23;;
13481;SDS011;6813;60.352;15.746;2022-12-11T13:38:45;6.13;;;3.37;;
13481;SDS011;6813;60.352;15.746;2022-12-11T13:41:13;6.13;;;3.87;;
13481;SDS011;6813;60.352;15.746;2022-12-11T13:43:40;7.43;;;4.40;;
13481;SDS011;6813;60.352;15.746;2022-12-11T13:46:10;7.43;;;4.10;;
13481;SDS011;6813;60.352;15.746;2022-12-11T13:48:42;7.80;;;4.27;;
13481;SDS011;6813;60.352;15.746;2022-12-11T13:51:15;4.83;;;3.37;;
13481;SDS011;6813;60.352;15.746;2022-12-11T13:53:43;6.27;;;4.10;;
13481;SDS011;6813;60.352;15.746;2022-12-11T13:56:15;8.37;;;4.07;;
13481;SDS011;6813;60.352;15.746;2022-12-11T13:58:43;6.43;;;4.27;;
13481;SDS011;6813;60.352;15.746;2022-12-11T14:03:39;6.57;;;4.43;;
13481;SDS011;6813;60.352;15.746;2022-12-11T14:06:15;5.33;;;3.83;;
13481;SDS011;6813;60.352;15.746;2022-12-11T14:08:42;5.30;;;3.33;;
13481;SDS011;6813;60.352;15.746;2022-12-11T14:11:17;4.90;;;2.60;;
13481;SDS011;6813;60.352;15.746;2022-12-11T14:13:51;5.30;;;2.40;;
13481;SDS011;6813;60.352;15.746;2022-12-11T14:16:23;5.67;;;3.00;;
13481;SDS011;6813;60.352;15.746;2022-12-11T14:18:51;3.37;;;2.33;;
13481;SDS011;6813;60.352;15.746;2022-12-11T14:21:21;3.53;;;2.53;;
13481;SDS011;6813;60.352;15.746;2022-12-11T14:23:53;4.47;;;2.53;;
13481;SDS011;6813;60.352;15.746;2022-12-11T14:26:24;4.70;;;2.33;;
13481;SDS011;6813;60.352;15.746;2022-12-11T14:29:01;4.30;;;2.97;;
13481;SDS011;6813;60.352;15.746;2022-12-11T14:32:01;3.90;;;2.80;;
13481;SDS011;6813;60.352;15.746;2022-12-11T14:34:31;4.57;;;2.43;;
13481;SDS011;6813;60.352;15.746;2022-12-11T14:36:58;5.20;;;3.37;;
13481;SDS011;6813;60.352;15.746;2022-12-11T14:39:27;6.40;;;2.83;;
13481;SDS011;6813;60.352;15.746;2022-12-11T14:42:26;5.57;;;2.30;;
13481;SDS011;6813;60.352;15.746;2022-12-11T14:44:56;3.40;;;2.40;;
13481;SDS011;6813;60.352;15.746;2022-12-11T14:47:34;5.07;;;2.90;;
13481;SDS011;6813;60.352;15.746;2022-12-11T14:52:43;6.07;;;3.67;;
13481;SDS011;6813;60.352;15.746;2022-12-11T14:55:19;7.43;;;3.80;;
13481;SDS011;6813;60.352;15.746;2022-12-11T14:57:55;7.63;;;3.57;;
13481;SDS011;6813;60.352;15.746;2022-12-11T15:00:33;8.47;;;3.90;;
13481;SDS011;6813;60.352;15.746;2022-12-11T15:03:03;6.33;;;4.00;;
13481;SDS011;6813;60.352;15.746;2022-12-11T15:05:51;13.43;;;6.93;;
13481;SDS011;6813;60.352;15.746;2022-12-11T15:08:19;8.53;;;5.90;;
13481;SDS011;6813;60.352;15.746;2022-12-11T15:13:30;7.50;;;3.80;;
13481;SDS011;6813;60.352;15.746;2022-12-11T15:15:58;6.37;;;3.17;;
13481;SDS011;6813;60.352;15.746;2022-12-11T15:18:35;4.63;;;2.97;;
13481;SDS011;6813;60.352;15.746;2022-12-11T15:21:03;17.83;;;6.97;;
13481;SDS011;6813;60.352;15.746;2022-12-11T15:23:31;40.27;;;18.50;;
13481;SDS011;6813;60.352;15.746;2022-12-11T15:26:13;16.27;;;7.43;;
13481;SDS011;6813;60.352;15.746;2022-12-11T15:28:39;13.43;;;6.27;;
13481;SDS011;6813;60.352;15.746;2022-12-11T15:31:06;7.20;;;4.57;;
13481;SDS011;6813;60.352;15.746;2022-12-11T15:33:47;10.37;;;5.70;;
13481;SDS011;6813;60.352;15.746;2022-12-11T15:36:23;10.57;;;5.10;;
13481;SDS011;6813;60.352;15.746;2022-12-11T15:38:56;6.67;;;3.90;;
13481;SDS011;6813;60.352;15.746;2022-12-11T15:41:22;5.80;;;3.70;;
13481;SDS011;6813;60.352;15.746;2022-12-11T15:43:49;8.53;;;5.17;;
13481;SDS011;6813;60.352;15.746;2022-12-11T15:46:18;3.70;;;2.90;;
13481;SDS011;6813;60.352;15.746;2022-12-11T15:48:44;5.77;;;3.00;;
13481;SDS011;6813;60.352;15.746;2022-12-11T15:51:11;4.63;;;2.60;;
13481;SDS011;6813;60.352;15.746;2022-12-11T15:53:38;4.63;;;3.30;;
13481;SDS011;6813;60.352;15.746;2022-12-11T15:56:04;4.10;;;2.50;;
13481;SDS011;6813;60.352;15.746;2022-12-11T15:58:30;8.27;;;3.67;;
13481;SDS011;6813;60.352;15.746;2022-12-11T16:00:57;4.90;;;3.63;;
13481;SDS011;6813;60.352;15.746;2022-12-11T16:03:23;9.13;;;4.43;;
13481;SDS011;6813;60.352;15.746;2022-12-11T16:05:50;7.50;;;4.33;;
13481;SDS011;6813;60.352;15.746;2022-12-11T16:08:18;5.20;;;3.50;;
13481;SDS011;6813;60.352;15.746;2022-12-11T16:10:46;4.97;;;2.53;;
13481;SDS011;6813;60.352;15.746;2022-12-11T16:13:13;5.10;;;2.83;;
13481;SDS011;6813;60.352;15.746;2022-12-11T16:15:39;5.70;;;3.13;;
13481;SDS011;6813;60.352;15.746;2022-12-11T16:18:08;4.63;;;2.77;;
13481;SDS011;6813;60.352;15.746;2022-12-11T16:20:36;5.27;;;3.40;;
13481;SDS011;6813;60.352;15.746;2022-12-11T16:23:03;4.27;;;2.93;;
13481;SDS011;6813;60.352;15.746;2022-12-11T16:25:29;6.67;;;3.80;;
13481;SDS011;6813;60.352;15.746;2022-12-11T16:27:57;6.50;;;3.53;;
13481;SDS011;6813;60.352;15.746;2022-12-11T16:30:24;6.93;;;4.00;;
13481;SDS011;6813;60.352;15.746;2022-12-11T16:32:50;7.30;;;3.93;;
13481;SDS011;6813;60.352;15.746;2022-12-11T16:35:17;7.43;;;4.10;;
13481;SDS011;6813;60.352;15.746;2022-12-11T16:37:44;6.63;;;3.67;;